sensor_id;sensor_type;location;lat;lon;timestamp;P1;durP1;ratioP1;P2;durP2;ratioP2
65871;SDS011;52653;50.080;21.992;2023-05-18T00:01:15;5.60;;;3.40;;
65871;SDS011;52653;50.080;21.992;2023-05-18T00:04:08;5.20;;;2.50;;
65871;SDS011;52653;50.080;21.992;2023-05-18T00:06:54;4.00;;;2.40;;
65871;SDS011;52653;50.080;21.992;2023-05-18T00:09:48;3.80;;;2.30;;
65871;SDS011;52653;50.080;21.992;2023-05-18T00:12:41;3.70;;;2.10;;
65871;SDS011;52653;50.080;21.992;2023-05-18T00:15:28;3.70;;;2.20;;
65871;SDS011;52653;50.080;21.992;2023-05-18T00:18:21;4.20;;;2.40;;
65871;SDS011;52653;50.080;21.992;2023-05-18T00:21:07;3.40;;;2.10;;
65871;SDS011;52653;50.080;21.992;2023-05-18T00:24:00;4.10;;;2.40;;
65871;SDS011;52653;50.080;21.992;2023-05-18T00:26:47;4.80;;;2.70;;
65871;SDS011;52653;50.080;21.992;2023-05-18T00:29:40;4.10;;;2.10;;
65871;SDS011;52653;50.080;21.992;2023-05-18T00:32:33;4.30;;;2.30;;
65871;SDS011;52653;50.080;21.992;2023-05-18T00:35:24;3.30;;;2.00;;
65871;SDS011;52653;50.080;21.992;2023-05-18T00:38:21;6.10;;;3.20;;
65871;SDS011;52653;50.080;21.992;2023-05-18T00:41:13;3.50;;;2.20;;
65871;SDS011;52653;50.080;21.992;2023-05-18T00:43:53;3.10;;;1.90;;
65871;SDS011;52653;50.080;21.992;2023-05-18T00:46:40;3.10;;;1.90;;
65871;SDS011;52653;50.080;21.992;2023-05-18T00:49:33;3.60;;;1.80;;
65871;SDS011;52653;50.080;21.992;2023-05-18T00:52:27;2.70;;;1.60;;
65871;SDS011;52653;50.080;21.992;2023-05-18T00:55:12;2.10;;;1.60;;
65871;SDS011;52653;50.080;21.992;2023-05-18T00:58:05;3.10;;;1.70;;
65871;SDS011;52653;50.080;21.992;2023-05-18T01:00:50;1.90;;;1.40;;
65871;SDS011;52653;50.080;21.992;2023-05-18T01:03:35;2.60;;;1.80;;
65871;SDS011;52653;50.080;21.992;2023-05-18T01:06:28;2.10;;;1.60;;
65871;SDS011;52653;50.080;21.992;2023-05-18T01:09:18;2.10;;;1.30;;
65871;SDS011;52653;50.080;21.992;2023-05-18T01:12:04;2.10;;;1.30;;
65871;SDS011;52653;50.080;21.992;2023-05-18T01:15:05;2.40;;;1.50;;
65871;SDS011;52653;50.080;21.992;2023-05-18T01:18:00;2.10;;;1.40;;
65871;SDS011;52653;50.080;21.992;2023-05-18T01:20:57;3.40;;;1.30;;
65871;SDS011;52653;50.080;21.992;2023-05-18T01:23:56;1.90;;;1.20;;
65871;SDS011;52653;50.080;21.992;2023-05-18T01:27:04;2.10;;;1.50;;
65871;SDS011;52653;50.080;21.992;2023-05-18T01:29:52;2.30;;;1.50;;
65871;SDS011;52653;50.080;21.992;2023-05-18T01:32:41;2.60;;;1.50;;
65871;SDS011;52653;50.080;21.992;2023-05-18T01:35:29;2.20;;;1.40;;
65871;SDS011;52653;50.080;21.992;2023-05-18T01:38:15;2.20;;;1.20;;
65871;SDS011;52653;50.080;21.992;2023-05-18T01:41:11;2.80;;;1.60;;
65871;SDS011;52653;50.080;21.992;2023-05-18T01:44:10;2.90;;;2.00;;
65871;SDS011;52653;50.080;21.992;2023-05-18T01:47:09;4.30;;;1.60;;
65871;SDS011;52653;50.080;21.992;2023-05-18T01:49:58;2.70;;;1.80;;
65871;SDS011;52653;50.080;21.992;2023-05-18T01:52:45;3.60;;;1.80;;
65871;SDS011;52653;50.080;21.992;2023-05-18T01:55:35;3.50;;;1.70;;
65871;SDS011;52653;50.080;21.992;2023-05-18T01:58:24;3.90;;;1.70;;
65871;SDS011;52653;50.080;21.992;2023-05-18T02:01:12;3.20;;;1.70;;
65871;SDS011;52653;50.080;21.992;2023-05-18T02:04:09;3.00;;;1.80;;
65871;SDS011;52653;50.080;21.992;2023-05-18T02:06:50;2.30;;;1.50;;
65871;SDS011;52653;50.080;21.992;2023-05-18T02:09:26;5.00;;;2.40;;
65871;SDS011;52653;50.080;21.992;2023-05-18T02:12:10;2.80;;;1.80;;
65871;SDS011;52653;50.080;21.992;2023-05-18T02:17:54;3.50;;;1.70;;
65871;SDS011;52653;50.080;21.992;2023-05-18T02:20:40;3.20;;;1.80;;
65871;SDS011;52653;50.080;21.992;2023-05-18T02:23:33;4.30;;;1.70;;
65871;SDS011;52653;50.080;21.992;2023-05-18T02:26:26;3.00;;;1.90;;
65871;SDS011;52653;50.080;21.992;2023-05-18T02:29:18;3.70;;;1.90;;
65871;SDS011;52653;50.080;21.992;2023-05-18T02:32:05;4.00;;;1.70;;
65871;SDS011;52653;50.080;21.992;2023-05-18T02:34:59;2.90;;;1.70;;
65871;SDS011;52653;50.080;21.992;2023-05-18T02:37:52;2.70;;;1.80;;
65871;SDS011;52653;50.080;21.992;2023-05-18T02:40:34;3.40;;;2.00;;
65871;SDS011;52653;50.080;21.992;2023-05-18T02:43:27;3.00;;;1.70;;
65871;SDS011;52653;50.080;21.992;2023-05-18T02:46:20;3.20;;;1.70;;
65871;SDS011;52653;50.080;21.992;2023-05-18T02:49:13;3.30;;;2.10;;
65871;SDS011;52653;50.080;21.992;2023-05-18T02:52:06;3.10;;;2.00;;
65871;SDS011;52653;50.080;21.992;2023-05-18T02:54:59;4.40;;;1.90;;
65871;SDS011;52653;50.080;21.992;2023-05-18T02:57:54;4.40;;;2.30;;
65871;SDS011;52653;50.080;21.992;2023-05-18T03:00:48;4.70;;;2.40;;
65871;SDS011;52653;50.080;21.992;2023-05-18T03:03:43;4.70;;;2.10;;
65871;SDS011;52653;50.080;21.992;2023-05-18T03:06:36;4.10;;;2.20;;
65871;SDS011;52653;50.080;21.992;2023-05-18T03:09:22;3.60;;;2.10;;
65871;SDS011;52653;50.080;21.992;2023-05-18T03:12:15;4.50;;;2.90;;
65871;SDS011;52653;50.080;21.992;2023-05-18T03:15:09;3.70;;;2.00;;
65871;SDS011;52653;50.080;21.992;2023-05-18T03:18:05;4.80;;;2.70;;
65871;SDS011;52653;50.080;21.992;2023-05-18T03:20:59;4.30;;;2.30;;
65871;SDS011;52653;50.080;21.992;2023-05-18T03:23:52;4.20;;;2.20;;
65871;SDS011;52653;50.080;21.992;2023-05-18T03:26:45;3.50;;;2.30;;
65871;SDS011;52653;50.080;21.992;2023-05-18T03:29:43;4.70;;;2.20;;
65871;SDS011;52653;50.080;21.992;2023-05-18T03:32:36;3.70;;;2.00;;
65871;SDS011;52653;50.080;21.992;2023-05-18T03:35:19;4.50;;;2.10;;
65871;SDS011;52653;50.080;21.992;2023-05-18T03:38:03;4.00;;;2.20;;
65871;SDS011;52653;50.080;21.992;2023-05-18T03:40:56;4.70;;;2.30;;
65871;SDS011;52653;50.080;21.992;2023-05-18T03:43:49;5.60;;;2.60;;
65871;SDS011;52653;50.080;21.992;2023-05-18T03:46:42;5.10;;;2.40;;
65871;SDS011;52653;50.080;21.992;2023-05-18T03:49:35;5.50;;;2.60;;
65871;SDS011;52653;50.080;21.992;2023-05-18T03:52:09;4.30;;;2.50;;
65871;SDS011;52653;50.080;21.992;2023-05-18T03:55:04;4.60;;;2.30;;
65871;SDS011;52653;50.080;21.992;2023-05-18T03:57:50;5.30;;;2.30;;
65871;SDS011;52653;50.080;21.992;2023-05-18T04:00:44;4.20;;;2.10;;
65871;SDS011;52653;50.080;21.992;2023-05-18T04:03:38;4.10;;;2.30;;
65871;SDS011;52653;50.080;21.992;2023-05-18T04:06:32;7.10;;;2.30;;
65871;SDS011;52653;50.080;21.992;2023-05-18T04:09:09;5.40;;;2.00;;
65871;SDS011;52653;50.080;21.992;2023-05-18T04:11:54;4.50;;;2.00;;
65871;SDS011;52653;50.080;21.992;2023-05-18T04:14:27;3.40;;;2.00;;
65871;SDS011;52653;50.080;21.992;2023-05-18T04:17:04;3.50;;;2.00;;
65871;SDS011;52653;50.080;21.992;2023-05-18T04:19:37;4.20;;;2.20;;
65871;SDS011;52653;50.080;21.992;2023-05-18T04:22:14;5.10;;;2.40;;
65871;SDS011;52653;50.080;21.992;2023-05-18T04:24:47;3.50;;;2.10;;
65871;SDS011;52653;50.080;21.992;2023-05-18T04:27:25;4.00;;;1.90;;
65871;SDS011;52653;50.080;21.992;2023-05-18T04:29:58;5.00;;;2.30;;
65871;SDS011;52653;50.080;21.992;2023-05-18T04:32:34;6.00;;;3.00;;
65871;SDS011;52653;50.080;21.992;2023-05-18T04:35:09;6.00;;;3.30;;
65871;SDS011;52653;50.080;21.992;2023-05-18T04:37:42;6.90;;;3.60;;
65871;SDS011;52653;50.080;21.992;2023-05-18T04:40:19;6.30;;;3.10;;
65871;SDS011;52653;50.080;21.992;2023-05-18T04:42:57;7.40;;;3.30;;
65871;SDS011;52653;50.080;21.992;2023-05-18T04:45:31;6.00;;;2.90;;
65871;SDS011;52653;50.080;21.992;2023-05-18T04:48:15;7.10;;;3.40;;
65871;SDS011;52653;50.080;21.992;2023-05-18T04:50:48;5.90;;;3.20;;
65871;SDS011;52653;50.080;21.992;2023-05-18T04:53:25;6.20;;;3.50;;
65871;SDS011;52653;50.080;21.992;2023-05-18T04:56:02;4.40;;;2.60;;
65871;SDS011;52653;50.080;21.992;2023-05-18T04:58:35;4.30;;;2.40;;
65871;SDS011;52653;50.080;21.992;2023-05-18T05:01:10;5.30;;;2.50;;
65871;SDS011;52653;50.080;21.992;2023-05-18T05:03:51;6.20;;;2.80;;
65871;SDS011;52653;50.080;21.992;2023-05-18T05:06:27;4.10;;;2.00;;
65871;SDS011;52653;50.080;21.992;2023-05-18T05:09:08;5.50;;;2.60;;
65871;SDS011;52653;50.080;21.992;2023-05-18T05:11:43;6.30;;;2.50;;
65871;SDS011;52653;50.080;21.992;2023-05-18T05:14:17;5.20;;;2.40;;
65871;SDS011;52653;50.080;21.992;2023-05-18T05:16:50;6.10;;;2.60;;
65871;SDS011;52653;50.080;21.992;2023-05-18T05:19:26;4.60;;;2.50;;
65871;SDS011;52653;50.080;21.992;2023-05-18T05:21:58;5.40;;;2.10;;
65871;SDS011;52653;50.080;21.992;2023-05-18T05:24:31;5.30;;;2.80;;
65871;SDS011;52653;50.080;21.992;2023-05-18T05:27:07;5.70;;;2.80;;
65871;SDS011;52653;50.080;21.992;2023-05-18T05:29:40;5.20;;;2.50;;
65871;SDS011;52653;50.080;21.992;2023-05-18T05:32:13;7.60;;;3.00;;
65871;SDS011;52653;50.080;21.992;2023-05-18T05:34:50;6.30;;;2.90;;
65871;SDS011;52653;50.080;21.992;2023-05-18T05:37:23;5.40;;;2.40;;
65871;SDS011;52653;50.080;21.992;2023-05-18T05:39:56;5.30;;;2.30;;
65871;SDS011;52653;50.080;21.992;2023-05-18T05:42:32;5.00;;;2.10;;
65871;SDS011;52653;50.080;21.992;2023-05-18T05:45:07;5.30;;;3.10;;
65871;SDS011;52653;50.080;21.992;2023-05-18T05:47:47;4.80;;;2.30;;
65871;SDS011;52653;50.080;21.992;2023-05-18T05:50:23;4.80;;;2.70;;
65871;SDS011;52653;50.080;21.992;2023-05-18T05:52:59;7.40;;;3.40;;
65871;SDS011;52653;50.080;21.992;2023-05-18T05:55:34;7.20;;;3.10;;
65871;SDS011;52653;50.080;21.992;2023-05-18T05:58:15;7.80;;;3.10;;
65871;SDS011;52653;50.080;21.992;2023-05-18T06:01:06;7.30;;;3.00;;
65871;SDS011;52653;50.080;21.992;2023-05-18T06:03:38;5.70;;;3.50;;
65871;SDS011;52653;50.080;21.992;2023-05-18T06:06:13;6.80;;;3.30;;
65871;SDS011;52653;50.080;21.992;2023-05-18T06:08:47;8.10;;;2.90;;
65871;SDS011;52653;50.080;21.992;2023-05-18T06:11:21;7.10;;;4.00;;
65871;SDS011;52653;50.080;21.992;2023-05-18T06:13:54;7.10;;;2.80;;
65871;SDS011;52653;50.080;21.992;2023-05-18T06:16:27;7.50;;;3.50;;
65871;SDS011;52653;50.080;21.992;2023-05-18T06:19:20;5.80;;;2.90;;
65871;SDS011;52653;50.080;21.992;2023-05-18T06:22:13;6.80;;;3.10;;
65871;SDS011;52653;50.080;21.992;2023-05-18T06:25:07;6.00;;;2.60;;
65871;SDS011;52653;50.080;21.992;2023-05-18T06:28:00;6.60;;;2.70;;
65871;SDS011;52653;50.080;21.992;2023-05-18T06:31:05;4.20;;;2.10;;
65871;SDS011;52653;50.080;21.992;2023-05-18T06:34:01;4.40;;;2.30;;
65871;SDS011;52653;50.080;21.992;2023-05-18T06:36:55;6.10;;;2.50;;
65871;SDS011;52653;50.080;21.992;2023-05-18T06:39:48;5.00;;;2.50;;
65871;SDS011;52653;50.080;21.992;2023-05-18T06:42:42;4.80;;;2.30;;
65871;SDS011;52653;50.080;21.992;2023-05-18T06:45:38;5.10;;;2.30;;
65871;SDS011;52653;50.080;21.992;2023-05-18T06:48:31;4.50;;;1.90;;
65871;SDS011;52653;50.080;21.992;2023-05-18T06:51:27;4.50;;;1.80;;
65871;SDS011;52653;50.080;21.992;2023-05-18T06:54:20;5.10;;;2.00;;
65871;SDS011;52653;50.080;21.992;2023-05-18T06:57:11;4.80;;;1.80;;
65871;SDS011;52653;50.080;21.992;2023-05-18T06:59:57;4.50;;;1.80;;
65871;SDS011;52653;50.080;21.992;2023-05-18T07:02:51;4.60;;;1.40;;
65871;SDS011;52653;50.080;21.992;2023-05-18T07:05:37;4.20;;;1.60;;
65871;SDS011;52653;50.080;21.992;2023-05-18T07:08:30;3.20;;;1.80;;
65871;SDS011;52653;50.080;21.992;2023-05-18T07:11:25;4.30;;;1.70;;
65871;SDS011;52653;50.080;21.992;2023-05-18T07:14:18;3.40;;;1.60;;
65871;SDS011;52653;50.080;21.992;2023-05-18T07:16:53;3.80;;;1.60;;
65871;SDS011;52653;50.080;21.992;2023-05-18T07:19:46;3.90;;;1.40;;
65871;SDS011;52653;50.080;21.992;2023-05-18T07:22:29;6.90;;;2.20;;
65871;SDS011;52653;50.080;21.992;2023-05-18T07:25:22;3.50;;;1.60;;
65871;SDS011;52653;50.080;21.992;2023-05-18T07:28:00;4.80;;;1.80;;
65871;SDS011;52653;50.080;21.992;2023-05-18T07:30:33;4.90;;;2.20;;
65871;SDS011;52653;50.080;21.992;2023-05-18T07:33:16;6.40;;;2.10;;
65871;SDS011;52653;50.080;21.992;2023-05-18T07:35:49;4.90;;;1.80;;
65871;SDS011;52653;50.080;21.992;2023-05-18T07:38:42;3.80;;;1.80;;
65871;SDS011;52653;50.080;21.992;2023-05-18T07:41:35;4.60;;;1.90;;
65871;SDS011;52653;50.080;21.992;2023-05-18T07:44:10;4.20;;;1.30;;
65871;SDS011;52653;50.080;21.992;2023-05-18T07:46:43;4.10;;;1.50;;
65871;SDS011;52653;50.080;21.992;2023-05-18T07:49:16;3.00;;;1.70;;
65871;SDS011;52653;50.080;21.992;2023-05-18T07:51:51;3.30;;;1.50;;
65871;SDS011;52653;50.080;21.992;2023-05-18T07:54:36;4.10;;;1.30;;
65871;SDS011;52653;50.080;21.992;2023-05-18T07:57:09;4.40;;;1.70;;
65871;SDS011;52653;50.080;21.992;2023-05-18T08:00:03;2.60;;;1.40;;
65871;SDS011;52653;50.080;21.992;2023-05-18T08:02:41;4.10;;;1.90;;
65871;SDS011;52653;50.080;21.992;2023-05-18T08:05:15;4.80;;;1.50;;
65871;SDS011;52653;50.080;21.992;2023-05-18T08:08:09;3.20;;;1.30;;
65871;SDS011;52653;50.080;21.992;2023-05-18T08:10:44;3.00;;;1.10;;
65871;SDS011;52653;50.080;21.992;2023-05-18T08:13:37;3.40;;;1.20;;
65871;SDS011;52653;50.080;21.992;2023-05-18T08:16:09;2.60;;;1.20;;
65871;SDS011;52653;50.080;21.992;2023-05-18T08:18:53;2.70;;;1.10;;
65871;SDS011;52653;50.080;21.992;2023-05-18T08:21:44;2.80;;;1.30;;
65871;SDS011;52653;50.080;21.992;2023-05-18T08:24:37;3.10;;;1.50;;
65871;SDS011;52653;50.080;21.992;2023-05-18T08:27:10;2.80;;;1.20;;
65871;SDS011;52653;50.080;21.992;2023-05-18T08:29:54;3.80;;;1.50;;
65871;SDS011;52653;50.080;21.992;2023-05-18T08:32:47;3.20;;;1.20;;
65871;SDS011;52653;50.080;21.992;2023-05-18T08:35:30;2.50;;;1.50;;
65871;SDS011;52653;50.080;21.992;2023-05-18T08:38:25;2.30;;;1.20;;
65871;SDS011;52653;50.080;21.992;2023-05-18T08:41:04;2.00;;;1.00;;
65871;SDS011;52653;50.080;21.992;2023-05-18T08:43:43;2.80;;;1.50;;
65871;SDS011;52653;50.080;21.992;2023-05-18T08:48:54;2.90;;;1.40;;
65871;SDS011;52653;50.080;21.992;2023-05-18T08:51:29;5.90;;;1.60;;
65871;SDS011;52653;50.080;21.992;2023-05-18T08:54:05;3.00;;;1.40;;
65871;SDS011;52653;50.080;21.992;2023-05-18T08:56:42;4.50;;;1.70;;
65871;SDS011;52653;50.080;21.992;2023-05-18T08:59:17;3.10;;;1.50;;
65871;SDS011;52653;50.080;21.992;2023-05-18T09:01:54;2.70;;;1.20;;
65871;SDS011;52653;50.080;21.992;2023-05-18T09:04:27;2.70;;;1.30;;
65871;SDS011;52653;50.080;21.992;2023-05-18T09:07:06;2.70;;;1.10;;
65871;SDS011;52653;50.080;21.992;2023-05-18T09:09:45;2.70;;;1.30;;
65871;SDS011;52653;50.080;21.992;2023-05-18T09:12:19;2.90;;;1.30;;
65871;SDS011;52653;50.080;21.992;2023-05-18T09:14:53;2.80;;;1.40;;
65871;SDS011;52653;50.080;21.992;2023-05-18T09:17:26;3.50;;;1.20;;
65871;SDS011;52653;50.080;21.992;2023-05-18T09:19:59;4.00;;;1.50;;
65871;SDS011;52653;50.080;21.992;2023-05-18T09:22:35;3.80;;;1.60;;
65871;SDS011;52653;50.080;21.992;2023-05-18T09:25:09;3.10;;;1.30;;
65871;SDS011;52653;50.080;21.992;2023-05-18T09:27:41;3.20;;;1.40;;
65871;SDS011;52653;50.080;21.992;2023-05-18T09:30:15;2.30;;;1.20;;
65871;SDS011;52653;50.080;21.992;2023-05-18T09:32:48;2.70;;;1.40;;
65871;SDS011;52653;50.080;21.992;2023-05-18T09:35:25;4.10;;;1.40;;
65871;SDS011;52653;50.080;21.992;2023-05-18T09:37:58;3.40;;;1.40;;
65871;SDS011;52653;50.080;21.992;2023-05-18T09:40:35;4.00;;;1.50;;
65871;SDS011;52653;50.080;21.992;2023-05-18T09:43:09;2.20;;;1.20;;
65871;SDS011;52653;50.080;21.992;2023-05-18T09:45:42;3.40;;;1.40;;
65871;SDS011;52653;50.080;21.992;2023-05-18T09:48:16;2.30;;;1.20;;
65871;SDS011;52653;50.080;21.992;2023-05-18T09:50:53;2.50;;;1.30;;
65871;SDS011;52653;50.080;21.992;2023-05-18T09:53:30;3.90;;;1.40;;
65871;SDS011;52653;50.080;21.992;2023-05-18T09:56:06;2.20;;;1.40;;
65871;SDS011;52653;50.080;21.992;2023-05-18T09:58:40;3.00;;;1.20;;
65871;SDS011;52653;50.080;21.992;2023-05-18T10:01:13;2.80;;;1.20;;
65871;SDS011;52653;50.080;21.992;2023-05-18T10:03:46;3.20;;;1.20;;
65871;SDS011;52653;50.080;21.992;2023-05-18T10:06:26;4.00;;;1.60;;
65871;SDS011;52653;50.080;21.992;2023-05-18T10:09:02;3.00;;;1.30;;
65871;SDS011;52653;50.080;21.992;2023-05-18T10:11:44;1.80;;;1.20;;
65871;SDS011;52653;50.080;21.992;2023-05-18T10:14:23;2.70;;;1.20;;
65871;SDS011;52653;50.080;21.992;2023-05-18T10:17:03;2.70;;;1.10;;
65871;SDS011;52653;50.080;21.992;2023-05-18T10:19:42;3.50;;;1.50;;
65871;SDS011;52653;50.080;21.992;2023-05-18T10:22:17;2.30;;;1.00;;
65871;SDS011;52653;50.080;21.992;2023-05-18T10:24:56;2.20;;;1.10;;
65871;SDS011;52653;50.080;21.992;2023-05-18T10:27:32;2.80;;;1.20;;
65871;SDS011;52653;50.080;21.992;2023-05-18T10:30:07;3.00;;;1.10;;
65871;SDS011;52653;50.080;21.992;2023-05-18T10:32:41;2.70;;;1.10;;
65871;SDS011;52653;50.080;21.992;2023-05-18T10:35:16;3.60;;;1.20;;
65871;SDS011;52653;50.080;21.992;2023-05-18T10:37:50;3.90;;;1.40;;
65871;SDS011;52653;50.080;21.992;2023-05-18T10:40:25;6.80;;;2.80;;
65871;SDS011;52653;50.080;21.992;2023-05-18T10:42:58;4.90;;;2.00;;
65871;SDS011;52653;50.080;21.992;2023-05-18T10:45:34;2.30;;;1.10;;
65871;SDS011;52653;50.080;21.992;2023-05-18T10:48:09;1.60;;;0.80;;
65871;SDS011;52653;50.080;21.992;2023-05-18T10:50:43;3.00;;;0.90;;
65871;SDS011;52653;50.080;21.992;2023-05-18T10:53:17;1.90;;;0.90;;
65871;SDS011;52653;50.080;21.992;2023-05-18T10:55:51;2.20;;;1.10;;
65871;SDS011;52653;50.080;21.992;2023-05-18T10:58:26;1.90;;;0.80;;
65871;SDS011;52653;50.080;21.992;2023-05-18T11:01:00;1.20;;;0.90;;
65871;SDS011;52653;50.080;21.992;2023-05-18T11:03:37;3.00;;;0.80;;
65871;SDS011;52653;50.080;21.992;2023-05-18T11:06:11;2.40;;;1.10;;
65871;SDS011;52653;50.080;21.992;2023-05-18T11:08:47;4.80;;;2.10;;
65871;SDS011;52653;50.080;21.992;2023-05-18T11:11:24;2.20;;;0.90;;
65871;SDS011;52653;50.080;21.992;2023-05-18T11:14:01;3.40;;;1.60;;
65871;SDS011;52653;50.080;21.992;2023-05-18T11:16:34;4.40;;;1.70;;
65871;SDS011;52653;50.080;21.992;2023-05-18T11:19:11;3.40;;;1.30;;
65871;SDS011;52653;50.080;21.992;2023-05-18T11:21:51;2.70;;;1.20;;
65871;SDS011;52653;50.080;21.992;2023-05-18T11:24:29;2.80;;;1.20;;
65871;SDS011;52653;50.080;21.992;2023-05-18T11:27:11;3.80;;;1.10;;
65871;SDS011;52653;50.080;21.992;2023-05-18T11:29:50;3.20;;;1.30;;
65871;SDS011;52653;50.080;21.992;2023-05-18T11:32:48;3.40;;;1.40;;
65871;SDS011;52653;50.080;21.992;2023-05-18T11:35:22;4.00;;;1.60;;
65871;SDS011;52653;50.080;21.992;2023-05-18T11:37:55;2.50;;;1.30;;
65871;SDS011;52653;50.080;21.992;2023-05-18T11:40:44;2.40;;;1.10;;
65871;SDS011;52653;50.080;21.992;2023-05-18T11:43:21;3.60;;;1.70;;
65871;SDS011;52653;50.080;21.992;2023-05-18T11:45:55;2.70;;;1.50;;
65871;SDS011;52653;50.080;21.992;2023-05-18T11:48:28;4.80;;;2.20;;
65871;SDS011;52653;50.080;21.992;2023-05-18T11:51:05;3.00;;;1.70;;
65871;SDS011;52653;50.080;21.992;2023-05-18T11:53:40;4.40;;;1.50;;
65871;SDS011;52653;50.080;21.992;2023-05-18T11:56:13;2.30;;;1.30;;
65871;SDS011;52653;50.080;21.992;2023-05-18T11:58:46;3.10;;;1.30;;
65871;SDS011;52653;50.080;21.992;2023-05-18T12:01:42;2.40;;;1.20;;
65871;SDS011;52653;50.080;21.992;2023-05-18T12:04:15;3.90;;;1.70;;
65871;SDS011;52653;50.080;21.992;2023-05-18T12:06:49;2.70;;;1.60;;
65871;SDS011;52653;50.080;21.992;2023-05-18T12:09:34;2.80;;;1.60;;
65871;SDS011;52653;50.080;21.992;2023-05-18T12:12:10;3.50;;;1.30;;
65871;SDS011;52653;50.080;21.992;2023-05-18T12:14:51;3.30;;;1.10;;
65871;SDS011;52653;50.080;21.992;2023-05-18T12:17:37;2.70;;;1.20;;
65871;SDS011;52653;50.080;21.992;2023-05-18T12:20:12;3.00;;;1.60;;
65871;SDS011;52653;50.080;21.992;2023-05-18T12:25:24;2.90;;;1.70;;
65871;SDS011;52653;50.080;21.992;2023-05-18T12:27:57;4.00;;;1.80;;
65871;SDS011;52653;50.080;21.992;2023-05-18T12:30:33;3.50;;;1.80;;
65871;SDS011;52653;50.080;21.992;2023-05-18T12:33:07;4.20;;;2.20;;
65871;SDS011;52653;50.080;21.992;2023-05-18T12:35:43;3.30;;;2.10;;
65871;SDS011;52653;50.080;21.992;2023-05-18T12:38:17;4.10;;;2.30;;
65871;SDS011;52653;50.080;21.992;2023-05-18T12:40:50;4.30;;;2.30;;
65871;SDS011;52653;50.080;21.992;2023-05-18T12:43:25;3.80;;;2.40;;
65871;SDS011;52653;50.080;21.992;2023-05-18T12:46:04;4.80;;;2.40;;
65871;SDS011;52653;50.080;21.992;2023-05-18T12:48:44;2.50;;;1.50;;
65871;SDS011;52653;50.080;21.992;2023-05-18T12:51:32;3.70;;;2.00;;
65871;SDS011;52653;50.080;21.992;2023-05-18T12:54:06;2.70;;;1.80;;
65871;SDS011;52653;50.080;21.992;2023-05-18T12:56:52;3.50;;;1.60;;
65871;SDS011;52653;50.080;21.992;2023-05-18T12:59:30;4.40;;;2.40;;
65871;SDS011;52653;50.080;21.992;2023-05-18T13:02:04;4.80;;;2.60;;
65871;SDS011;52653;50.080;21.992;2023-05-18T13:04:38;3.50;;;2.10;;
65871;SDS011;52653;50.080;21.992;2023-05-18T13:07:11;5.00;;;2.40;;
65871;SDS011;52653;50.080;21.992;2023-05-18T13:09:45;4.20;;;2.40;;
65871;SDS011;52653;50.080;21.992;2023-05-18T13:12:18;4.70;;;2.50;;
65871;SDS011;52653;50.080;21.992;2023-05-18T13:15:14;6.60;;;2.60;;
65871;SDS011;52653;50.080;21.992;2023-05-18T13:17:53;3.80;;;2.00;;
65871;SDS011;52653;50.080;21.992;2023-05-18T13:20:30;3.70;;;1.90;;
65871;SDS011;52653;50.080;21.992;2023-05-18T13:23:06;4.10;;;2.30;;
65871;SDS011;52653;50.080;21.992;2023-05-18T13:25:41;5.60;;;2.50;;
65871;SDS011;52653;50.080;21.992;2023-05-18T13:28:16;3.50;;;2.10;;
65871;SDS011;52653;50.080;21.992;2023-05-18T13:30:52;6.90;;;4.00;;
65871;SDS011;52653;50.080;21.992;2023-05-18T13:33:24;4.60;;;2.60;;
65871;SDS011;52653;50.080;21.992;2023-05-18T13:35:59;5.90;;;3.00;;
65871;SDS011;52653;50.080;21.992;2023-05-18T13:38:32;4.10;;;2.30;;
65871;SDS011;52653;50.080;21.992;2023-05-18T13:41:05;6.60;;;2.90;;
65871;SDS011;52653;50.080;21.992;2023-05-18T13:43:43;4.80;;;2.40;;
65871;SDS011;52653;50.080;21.992;2023-05-18T13:46:18;5.20;;;2.60;;
65871;SDS011;52653;50.080;21.992;2023-05-18T13:48:51;5.80;;;3.20;;
65871;SDS011;52653;50.080;21.992;2023-05-18T13:51:24;7.50;;;3.30;;
65871;SDS011;52653;50.080;21.992;2023-05-18T13:53:58;7.60;;;3.20;;
65871;SDS011;52653;50.080;21.992;2023-05-18T13:56:32;5.40;;;2.70;;
65871;SDS011;52653;50.080;21.992;2023-05-18T13:59:05;5.10;;;2.80;;
65871;SDS011;52653;50.080;21.992;2023-05-18T14:01:38;3.50;;;2.30;;
65871;SDS011;52653;50.080;21.992;2023-05-18T14:04:11;5.50;;;2.80;;
65871;SDS011;52653;50.080;21.992;2023-05-18T14:06:44;6.10;;;3.00;;
65871;SDS011;52653;50.080;21.992;2023-05-18T14:09:16;6.40;;;3.50;;
65871;SDS011;52653;50.080;21.992;2023-05-18T14:11:49;4.50;;;2.30;;
65871;SDS011;52653;50.080;21.992;2023-05-18T14:14:22;3.70;;;2.20;;
65871;SDS011;52653;50.080;21.992;2023-05-18T14:16:57;5.90;;;2.70;;
65871;SDS011;52653;50.080;21.992;2023-05-18T14:19:31;6.00;;;2.40;;
65871;SDS011;52653;50.080;21.992;2023-05-18T14:22:07;6.30;;;3.30;;
65871;SDS011;52653;50.080;21.992;2023-05-18T14:24:40;5.10;;;2.70;;
65871;SDS011;52653;50.080;21.992;2023-05-18T14:27:12;5.30;;;2.60;;
65871;SDS011;52653;50.080;21.992;2023-05-18T14:29:45;4.10;;;2.10;;
65871;SDS011;52653;50.080;21.992;2023-05-18T14:32:18;4.50;;;2.30;;
65871;SDS011;52653;50.080;21.992;2023-05-18T14:34:50;5.80;;;3.00;;
65871;SDS011;52653;50.080;21.992;2023-05-18T14:37:24;5.30;;;2.70;;
65871;SDS011;52653;50.080;21.992;2023-05-18T14:39:56;5.30;;;3.10;;
65871;SDS011;52653;50.080;21.992;2023-05-18T14:42:29;6.80;;;3.80;;
65871;SDS011;52653;50.080;21.992;2023-05-18T14:45:02;6.30;;;3.40;;
65871;SDS011;52653;50.080;21.992;2023-05-18T14:47:35;5.10;;;2.60;;
65871;SDS011;52653;50.080;21.992;2023-05-18T14:50:09;4.60;;;2.50;;
65871;SDS011;52653;50.080;21.992;2023-05-18T14:52:41;4.90;;;2.60;;
65871;SDS011;52653;50.080;21.992;2023-05-18T14:55:14;5.70;;;2.60;;
65871;SDS011;52653;50.080;21.992;2023-05-18T14:57:47;5.00;;;2.60;;
65871;SDS011;52653;50.080;21.992;2023-05-18T15:00:19;4.60;;;2.90;;
65871;SDS011;52653;50.080;21.992;2023-05-18T15:02:52;5.50;;;2.60;;
65871;SDS011;52653;50.080;21.992;2023-05-18T15:05:25;4.70;;;2.50;;
65871;SDS011;52653;50.080;21.992;2023-05-18T15:07:58;4.30;;;2.60;;
65871;SDS011;52653;50.080;21.992;2023-05-18T15:10:30;4.80;;;2.20;;
65871;SDS011;52653;50.080;21.992;2023-05-18T15:13:14;5.80;;;2.50;;
65871;SDS011;52653;50.080;21.992;2023-05-18T15:15:47;4.90;;;2.40;;
65871;SDS011;52653;50.080;21.992;2023-05-18T15:18:20;4.70;;;2.80;;
65871;SDS011;52653;50.080;21.992;2023-05-18T15:20:53;6.00;;;2.70;;
65871;SDS011;52653;50.080;21.992;2023-05-18T15:23:26;5.90;;;3.10;;
65871;SDS011;52653;50.080;21.992;2023-05-18T15:25:58;6.10;;;2.60;;
65871;SDS011;52653;50.080;21.992;2023-05-18T15:28:31;5.70;;;2.70;;
65871;SDS011;52653;50.080;21.992;2023-05-18T15:31:13;4.70;;;2.40;;
65871;SDS011;52653;50.080;21.992;2023-05-18T15:33:45;4.50;;;2.40;;
65871;SDS011;52653;50.080;21.992;2023-05-18T15:36:18;5.00;;;2.40;;
65871;SDS011;52653;50.080;21.992;2023-05-18T15:39:11;5.40;;;2.40;;
65871;SDS011;52653;50.080;21.992;2023-05-18T15:41:44;5.20;;;2.60;;
65871;SDS011;52653;50.080;21.992;2023-05-18T15:44:28;4.40;;;2.70;;
65871;SDS011;52653;50.080;21.992;2023-05-18T15:47:21;5.60;;;3.20;;
65871;SDS011;52653;50.080;21.992;2023-05-18T15:50:05;7.70;;;4.80;;
65871;SDS011;52653;50.080;21.992;2023-05-18T15:52:59;8.60;;;5.40;;
65871;SDS011;52653;50.080;21.992;2023-05-18T15:55:51;7.00;;;4.00;;
65871;SDS011;52653;50.080;21.992;2023-05-18T15:58:39;6.60;;;3.50;;
65871;SDS011;52653;50.080;21.992;2023-05-18T16:01:32;7.20;;;4.30;;
65871;SDS011;52653;50.080;21.992;2023-05-18T16:04:25;7.40;;;4.20;;